sensor_id;sensor_type;location;lat;lon;timestamp;P1;durP1;ratioP1;P2;durP2;ratioP2
43990;SDS011;29654;50.784;20.604;2023-05-17T00:01:35;3.33;;;3.13;;
43990;SDS011;29654;50.784;20.604;2023-05-17T00:06:37;3.13;;;2.92;;
43990;SDS011;29654;50.784;20.604;2023-05-17T00:11:40;3.20;;;2.90;;
43990;SDS011;29654;50.784;20.604;2023-05-17T00:16:44;2.35;;;2.25;;
43990;SDS011;29654;50.784;20.604;2023-05-17T00:21:46;2.80;;;2.60;;
43990;SDS011;29654;50.784;20.604;2023-05-17T00:26:49;2.65;;;2.50;;
43990;SDS011;29654;50.784;20.604;2023-05-17T00:31:53;2.30;;;2.20;;
43990;SDS011;29654;50.784;20.604;2023-05-17T00:36:56;2.30;;;2.20;;
43990;SDS011;29654;50.784;20.604;2023-05-17T00:41:58;2.17;;;2.05;;
43990;SDS011;29654;50.784;20.604;2023-05-17T00:47:03;1.80;;;1.70;;
43990;SDS011;29654;50.784;20.604;2023-05-17T00:52:06;1.73;;;1.63;;
43990;SDS011;29654;50.784;20.604;2023-05-17T00:57:09;2.08;;;1.98;;
43990;SDS011;29654;50.784;20.604;2023-05-17T01:02:13;1.83;;;1.73;;
43990;SDS011;29654;50.784;20.604;2023-05-17T01:07:17;1.67;;;1.58;;
43990;SDS011;29654;50.784;20.604;2023-05-17T01:12:23;1.20;;;1.20;;
43990;SDS011;29654;50.784;20.604;2023-05-17T01:17:46;1.20;;;1.20;;
43990;SDS011;29654;50.784;20.604;2023-05-17T01:23:06;1.15;;;1.05;;
43990;SDS011;29654;50.784;20.604;2023-05-17T01:28:24;1.05;;;1.05;;
43990;SDS011;29654;50.784;20.604;2023-05-17T01:33:28;1.15;;;0.80;;
43990;SDS011;29654;50.784;20.604;2023-05-17T01:38:31;1.08;;;1.08;;
43990;SDS011;29654;50.784;20.604;2023-05-17T01:43:41;0.88;;;0.88;;
43990;SDS011;29654;50.784;20.604;2023-05-17T01:48:51;1.02;;;1.00;;
43990;SDS011;29654;50.784;20.604;2023-05-17T01:54:01;0.82;;;0.82;;
43990;SDS011;29654;50.784;20.604;2023-05-17T01:59:12;0.95;;;0.90;;
43990;SDS011;29654;50.784;20.604;2023-05-17T02:04:20;1.15;;;1.05;;
43990;SDS011;29654;50.784;20.604;2023-05-17T02:09:23;1.45;;;0.80;;
43990;SDS011;29654;50.784;20.604;2023-05-17T02:14:27;0.80;;;0.80;;
43990;SDS011;29654;50.784;20.604;2023-05-17T02:19:30;1.15;;;0.93;;
43990;SDS011;29654;50.784;20.604;2023-05-17T02:24:33;0.90;;;0.90;;
43990;SDS011;29654;50.784;20.604;2023-05-17T02:29:37;0.73;;;0.73;;
43990;SDS011;29654;50.784;20.604;2023-05-17T02:34:40;1.20;;;0.98;;
43990;SDS011;29654;50.784;20.604;2023-05-17T02:39:42;0.70;;;0.70;;
43990;SDS011;29654;50.784;20.604;2023-05-17T02:44:46;0.90;;;0.90;;
43990;SDS011;29654;50.784;20.604;2023-05-17T02:49:52;0.80;;;0.80;;
43990;SDS011;29654;50.784;20.604;2023-05-17T02:54:54;1.20;;;1.10;;
43990;SDS011;29654;50.784;20.604;2023-05-17T02:59:58;0.80;;;0.80;;
43990;SDS011;29654;50.784;20.604;2023-05-17T03:05:02;0.70;;;0.70;;
43990;SDS011;29654;50.784;20.604;2023-05-17T03:10:06;1.05;;;0.75;;
43990;SDS011;29654;50.784;20.604;2023-05-17T03:15:16;1.00;;;1.00;;
43990;SDS011;29654;50.784;20.604;2023-05-17T03:20:20;1.10;;;1.10;;
43990;SDS011;29654;50.784;20.604;2023-05-17T03:25:23;1.30;;;1.20;;
43990;SDS011;29654;50.784;20.604;2023-05-17T03:30:27;0.80;;;0.80;;
43990;SDS011;29654;50.784;20.604;2023-05-17T03:35:31;1.00;;;1.00;;
43990;SDS011;29654;50.784;20.604;2023-05-17T03:40:34;0.80;;;0.80;;
43990;SDS011;29654;50.784;20.604;2023-05-17T03:45:38;0.70;;;0.70;;
43990;SDS011;29654;50.784;20.604;2023-05-17T03:50:42;0.85;;;0.85;;
43990;SDS011;29654;50.784;20.604;2023-05-17T03:55:45;1.15;;;0.90;;
43990;SDS011;29654;50.784;20.604;2023-05-17T04:00:51;0.75;;;0.75;;
43990;SDS011;29654;50.784;20.604;2023-05-17T04:05:59;0.80;;;0.80;;
43990;SDS011;29654;50.784;20.604;2023-05-17T04:11:07;0.73;;;0.73;;
43990;SDS011;29654;50.784;20.604;2023-05-17T04:16:14;0.82;;;0.82;;
43990;SDS011;29654;50.784;20.604;2023-05-17T04:21:18;0.63;;;0.63;;
43990;SDS011;29654;50.784;20.604;2023-05-17T04:26:22;0.80;;;0.80;;
43990;SDS011;29654;50.784;20.604;2023-05-17T04:31:26;0.68;;;0.68;;
43990;SDS011;29654;50.784;20.604;2023-05-17T04:36:28;1.67;;;1.30;;
43990;SDS011;29654;50.784;20.604;2023-05-17T04:41:31;1.00;;;1.00;;
43990;SDS011;29654;50.784;20.604;2023-05-17T04:46:37;0.80;;;0.80;;
43990;SDS011;29654;50.784;20.604;2023-05-17T04:51:41;0.77;;;0.77;;
43990;SDS011;29654;50.784;20.604;2023-05-17T04:56:45;0.90;;;0.90;;
43990;SDS011;29654;50.784;20.604;2023-05-17T05:01:58;0.80;;;0.80;;
43990;SDS011;29654;50.784;20.604;2023-05-17T05:07:01;0.75;;;0.75;;
43990;SDS011;29654;50.784;20.604;2023-05-17T05:12:04;0.80;;;0.80;;
43990;SDS011;29654;50.784;20.604;2023-05-17T05:17:10;0.70;;;0.70;;
43990;SDS011;29654;50.784;20.604;2023-05-17T05:22:15;0.90;;;0.90;;
43990;SDS011;29654;50.784;20.604;2023-05-17T05:27:18;0.95;;;0.88;;
43990;SDS011;29654;50.784;20.604;2023-05-17T05:32:25;1.00;;;1.00;;
43990;SDS011;29654;50.784;20.604;2023-05-17T05:37:28;0.80;;;0.80;;
43990;SDS011;29654;50.784;20.604;2023-05-17T05:42:31;0.70;;;0.70;;
43990;SDS011;29654;50.784;20.604;2023-05-17T05:47:35;0.80;;;0.80;;
43990;SDS011;29654;50.784;20.604;2023-05-17T05:52:37;0.70;;;0.60;;
43990;SDS011;29654;50.784;20.604;2023-05-17T05:57:41;0.60;;;0.60;;
43990;SDS011;29654;50.784;20.604;2023-05-17T06:02:46;0.68;;;0.68;;
43990;SDS011;29654;50.784;20.604;2023-05-17T06:07:49;0.68;;;0.68;;
43990;SDS011;29654;50.784;20.604;2023-05-17T06:12:51;0.70;;;0.70;;
43990;SDS011;29654;50.784;20.604;2023-05-17T06:17:55;0.77;;;0.77;;
43990;SDS011;29654;50.784;20.604;2023-05-17T06:22:57;0.68;;;0.68;;
43990;SDS011;29654;50.784;20.604;2023-05-17T06:28:01;0.60;;;0.60;;
43990;SDS011;29654;50.784;20.604;2023-05-17T06:33:06;0.90;;;0.90;;
43990;SDS011;29654;50.784;20.604;2023-05-17T06:38:08;0.70;;;0.70;;
43990;SDS011;29654;50.784;20.604;2023-05-17T06:43:11;0.85;;;0.82;;
43990;SDS011;29654;50.784;20.604;2023-05-17T06:48:15;0.70;;;0.70;;
43990;SDS011;29654;50.784;20.604;2023-05-17T06:53:18;0.95;;;0.70;;
43990;SDS011;29654;50.784;20.604;2023-05-17T06:58:21;0.80;;;0.80;;
43990;SDS011;29654;50.784;20.604;2023-05-17T07:03:25;0.73;;;0.57;;
43990;SDS011;29654;50.784;20.604;2023-05-17T07:08:28;0.73;;;0.63;;
43990;SDS011;29654;50.784;20.604;2023-05-17T07:13:30;0.65;;;0.65;;
43990;SDS011;29654;50.784;20.604;2023-05-17T07:18:35;0.70;;;0.70;;
43990;SDS011;29654;50.784;20.604;2023-05-17T07:23:37;0.82;;;0.82;;
43990;SDS011;29654;50.784;20.604;2023-05-17T07:28:40;0.98;;;0.98;;
43990;SDS011;29654;50.784;20.604;2023-05-17T07:33:44;0.70;;;0.70;;
43990;SDS011;29654;50.784;20.604;2023-05-17T07:38:47;0.95;;;0.93;;
43990;SDS011;29654;50.784;20.604;2023-05-17T07:43:50;1.80;;;1.17;;
43990;SDS011;29654;50.784;20.604;2023-05-17T07:48:53;0.75;;;0.75;;
43990;SDS011;29654;50.784;20.604;2023-05-17T07:53:56;0.70;;;0.70;;
43990;SDS011;29654;50.784;20.604;2023-05-17T07:58:59;0.90;;;0.90;;
43990;SDS011;29654;50.784;20.604;2023-05-17T08:04:03;0.90;;;0.90;;
43990;SDS011;29654;50.784;20.604;2023-05-17T08:09:06;0.93;;;0.70;;
43990;SDS011;29654;50.784;20.604;2023-05-17T08:14:08;1.27;;;0.88;;
43990;SDS011;29654;50.784;20.604;2023-05-17T08:19:12;1.10;;;1.05;;
43990;SDS011;29654;50.784;20.604;2023-05-17T08:24:15;0.90;;;0.90;;
43990;SDS011;29654;50.784;20.604;2023-05-17T08:29:18;1.08;;;1.00;;
43990;SDS011;29654;50.784;20.604;2023-05-17T08:34:22;0.88;;;0.88;;
43990;SDS011;29654;50.784;20.604;2023-05-17T08:39:25;1.10;;;1.00;;
43990;SDS011;29654;50.784;20.604;2023-05-17T08:44:27;0.75;;;0.75;;
43990;SDS011;29654;50.784;20.604;2023-05-17T08:49:31;0.82;;;0.82;;
43990;SDS011;29654;50.784;20.604;2023-05-17T08:54:37;1.10;;;1.00;;
43990;SDS011;29654;50.784;20.604;2023-05-17T08:59:39;0.88;;;0.88;;
43990;SDS011;29654;50.784;20.604;2023-05-17T09:04:44;1.00;;;1.00;;
43990;SDS011;29654;50.784;20.604;2023-05-17T09:09:49;1.48;;;0.90;;
43990;SDS011;29654;50.784;20.604;2023-05-17T09:14:53;0.93;;;0.93;;
43990;SDS011;29654;50.784;20.604;2023-05-17T09:20:14;0.80;;;0.80;;
43990;SDS011;29654;50.784;20.604;2023-05-17T09:25:24;1.05;;;1.00;;
43990;SDS011;29654;50.784;20.604;2023-05-17T09:30:29;1.85;;;1.02;;
43990;SDS011;29654;50.784;20.604;2023-05-17T09:35:34;1.15;;;1.05;;
43990;SDS011;29654;50.784;20.604;2023-05-17T09:40:39;1.23;;;1.20;;
43990;SDS011;29654;50.784;20.604;2023-05-17T09:45:42;1.30;;;1.20;;
43990;SDS011;29654;50.784;20.604;2023-05-17T09:50:47;1.33;;;1.23;;
43990;SDS011;29654;50.784;20.604;2023-05-17T09:55:52;1.02;;;1.02;;
43990;SDS011;29654;50.784;20.604;2023-05-17T10:00:57;1.35;;;1.33;;
43990;SDS011;29654;50.784;20.604;2023-05-17T10:06:05;1.50;;;1.40;;
43990;SDS011;29654;50.784;20.604;2023-05-17T10:11:10;1.30;;;1.30;;
43990;SDS011;29654;50.784;20.604;2023-05-17T10:16:12;1.60;;;1.50;;
43990;SDS011;29654;50.784;20.604;2023-05-17T10:21:19;1.73;;;1.42;;
43990;SDS011;29654;50.784;20.604;2023-05-17T10:26:23;1.80;;;1.70;;
43990;SDS011;29654;50.784;20.604;2023-05-17T10:31:28;1.75;;;1.65;;
43990;SDS011;29654;50.784;20.604;2023-05-17T10:36:33;1.92;;;1.80;;
43990;SDS011;29654;50.784;20.604;2023-05-17T10:41:38;1.63;;;1.52;;
43990;SDS011;29654;50.784;20.604;2023-05-17T10:46:49;2.65;;;1.65;;
43990;SDS011;29654;50.784;20.604;2023-05-17T10:51:56;1.70;;;1.60;;
43990;SDS011;29654;50.784;20.604;2023-05-17T10:57:01;1.35;;;1.35;;
43990;SDS011;29654;50.784;20.604;2023-05-17T11:02:06;2.00;;;1.90;;
43990;SDS011;29654;50.784;20.604;2023-05-17T11:07:21;1.70;;;1.60;;
43990;SDS011;29654;50.784;20.604;2023-05-17T11:12:29;1.75;;;1.65;;
43990;SDS011;29654;50.784;20.604;2023-05-17T11:17:36;1.70;;;1.60;;
43990;SDS011;29654;50.784;20.604;2023-05-17T11:22:54;1.70;;;1.60;;
43990;SDS011;29654;50.784;20.604;2023-05-17T11:27:58;1.88;;;1.77;;
43990;SDS011;29654;50.784;20.604;2023-05-17T11:33:02;1.80;;;1.70;;
43990;SDS011;29654;50.784;20.604;2023-05-17T11:38:14;2.13;;;1.88;;
43990;SDS011;29654;50.784;20.604;2023-05-17T11:43:19;1.70;;;1.60;;
43990;SDS011;29654;50.784;20.604;2023-05-17T11:48:23;1.60;;;1.50;;
43990;SDS011;29654;50.784;20.604;2023-05-17T11:53:28;2.58;;;1.20;;
43990;SDS011;29654;50.784;20.604;2023-05-17T11:58:32;1.50;;;1.40;;
43990;SDS011;29654;50.784;20.604;2023-05-17T12:03:35;2.33;;;1.77;;
43990;SDS011;29654;50.784;20.604;2023-05-17T12:08:44;1.60;;;1.50;;
43990;SDS011;29654;50.784;20.604;2023-05-17T12:13:47;1.88;;;1.77;;
43990;SDS011;29654;50.784;20.604;2023-05-17T12:18:51;1.40;;;1.40;;
43990;SDS011;29654;50.784;20.604;2023-05-17T12:23:56;1.20;;;1.13;;
43990;SDS011;29654;50.784;20.604;2023-05-17T12:28:59;1.42;;;1.33;;
43990;SDS011;29654;50.784;20.604;2023-05-17T12:34:03;2.05;;;1.60;;
43990;SDS011;29654;50.784;20.604;2023-05-17T12:39:10;2.10;;;2.00;;
43990;SDS011;29654;50.784;20.604;2023-05-17T12:44:13;1.98;;;1.83;;
43990;SDS011;29654;50.784;20.604;2023-05-17T12:49:16;1.88;;;1.77;;
43990;SDS011;29654;50.784;20.604;2023-05-17T12:54:27;1.95;;;1.77;;
43990;SDS011;29654;50.784;20.604;2023-05-17T12:59:30;1.75;;;1.60;;
43990;SDS011;29654;50.784;20.604;2023-05-17T13:04:35;2.55;;;2.17;;
43990;SDS011;29654;50.784;20.604;2023-05-17T13:09:45;2.90;;;2.70;;
43990;SDS011;29654;50.784;20.604;2023-05-17T13:14:49;2.80;;;2.28;;
43990;SDS011;29654;50.784;20.604;2023-05-17T13:19:53;2.97;;;2.67;;
43990;SDS011;29654;50.784;20.604;2023-05-17T13:24:58;2.30;;;2.08;;
43990;SDS011;29654;50.784;20.604;2023-05-17T13:30:00;2.25;;;2.05;;
43990;SDS011;29654;50.784;20.604;2023-05-17T13:35:04;2.55;;;2.35;;
43990;SDS011;29654;50.784;20.604;2023-05-17T13:40:09;2.28;;;2.08;;
43990;SDS011;29654;50.784;20.604;2023-05-17T13:45:13;2.33;;;2.13;;
43990;SDS011;29654;50.784;20.604;2023-05-17T13:50:16;2.65;;;2.45;;
43990;SDS011;29654;50.784;20.604;2023-05-17T13:55:21;2.60;;;2.40;;
43990;SDS011;29654;50.784;20.604;2023-05-17T14:00:24;2.38;;;2.17;;
43990;SDS011;29654;50.784;20.604;2023-05-17T14:05:27;3.55;;;2.60;;
43990;SDS011;29654;50.784;20.604;2023-05-17T14:10:34;2.90;;;2.45;;
43990;SDS011;29654;50.784;20.604;2023-05-17T14:15:36;2.78;;;2.58;;
43990;SDS011;29654;50.784;20.604;2023-05-17T14:20:39;3.00;;;2.78;;
43990;SDS011;29654;50.784;20.604;2023-05-17T14:25:46;4.05;;;3.10;;
43990;SDS011;29654;50.784;20.604;2023-05-17T14:30:49;2.85;;;2.65;;
43990;SDS011;29654;50.784;20.604;2023-05-17T14:35:52;3.28;;;2.97;;
43990;SDS011;29654;50.784;20.604;2023-05-17T14:40:56;3.58;;;3.30;;
43990;SDS011;29654;50.784;20.604;2023-05-17T14:46:00;4.18;;;3.78;;
43990;SDS011;29654;50.784;20.604;2023-05-17T14:51:02;4.18;;;3.78;;
43990;SDS011;29654;50.784;20.604;2023-05-17T14:56:07;4.05;;;3.67;;
43990;SDS011;29654;50.784;20.604;2023-05-17T15:01:10;6.82;;;4.95;;
43990;SDS011;29654;50.784;20.604;2023-05-17T15:06:12;4.88;;;4.45;;
43990;SDS011;29654;50.784;20.604;2023-05-17T15:11:16;5.20;;;3.90;;
43990;SDS011;29654;50.784;20.604;2023-05-17T15:16:19;6.15;;;4.35;;
43990;SDS011;29654;50.784;20.604;2023-05-17T15:21:22;3.95;;;3.13;;
43990;SDS011;29654;50.784;20.604;2023-05-17T15:26:26;5.18;;;3.80;;
43990;SDS011;29654;50.784;20.604;2023-05-17T15:31:28;4.10;;;3.70;;
43990;SDS011;29654;50.784;20.604;2023-05-17T15:36:31;4.25;;;3.53;;
43990;SDS011;29654;50.784;20.604;2023-05-17T15:41:37;4.50;;;3.65;;
43990;SDS011;29654;50.784;20.604;2023-05-17T15:46:39;5.70;;;3.70;;
43990;SDS011;29654;50.784;20.604;2023-05-17T15:51:42;4.35;;;3.28;;
43990;SDS011;29654;50.784;20.604;2023-05-17T15:56:46;3.80;;;3.50;;
43990;SDS011;29654;50.784;20.604;2023-05-17T16:01:49;3.58;;;2.90;;
43990;SDS011;29654;50.784;20.604;2023-05-17T16:06:51;7.13;;;3.53;;
43990;SDS011;29654;50.784;20.604;2023-05-17T16:11:55;4.65;;;3.60;;
43990;SDS011;29654;50.784;20.604;2023-05-17T16:16:58;4.90;;;3.38;;
43990;SDS011;29654;50.784;20.604;2023-05-17T16:22:02;4.97;;;3.63;;
43990;SDS011;29654;50.784;20.604;2023-05-17T16:27:06;6.80;;;4.13;;
43990;SDS011;29654;50.784;20.604;2023-05-17T16:32:08;5.15;;;4.13;;
43990;SDS011;29654;50.784;20.604;2023-05-17T16:37:11;5.95;;;4.05;;
43990;SDS011;29654;50.784;20.604;2023-05-17T16:42:15;5.60;;;4.03;;
43990;SDS011;29654;50.784;20.604;2023-05-17T16:47:18;4.35;;;3.78;;
43990;SDS011;29654;50.784;20.604;2023-05-17T16:52:25;5.93;;;4.75;;
43990;SDS011;29654;50.784;20.604;2023-05-17T16:57:30;5.80;;;5.22;;
43990;SDS011;29654;50.784;20.604;2023-05-17T17:02:33;6.85;;;4.85;;
43990;SDS011;29654;50.784;20.604;2023-05-17T17:07:36;5.57;;;4.80;;
43990;SDS011;29654;50.784;20.604;2023-05-17T17:12:40;6.25;;;4.55;;
43990;SDS011;29654;50.784;20.604;2023-05-17T17:17:42;5.93;;;5.00;;
43990;SDS011;29654;50.784;20.604;2023-05-17T17:22:47;5.88;;;5.38;;
43990;SDS011;29654;50.784;20.604;2023-05-17T17:27:51;5.65;;;5.13;;
43990;SDS011;29654;50.784;20.604;2023-05-17T17:32:54;4.57;;;4.15;;
43990;SDS011;29654;50.784;20.604;2023-05-17T17:37:56;5.75;;;4.60;;
43990;SDS011;29654;50.784;20.604;2023-05-17T17:43:02;6.32;;;4.60;;
43990;SDS011;29654;50.784;20.604;2023-05-17T17:48:05;6.97;;;5.25;;
43990;SDS011;29654;50.784;20.604;2023-05-17T17:53:08;6.90;;;5.28;;
43990;SDS011;29654;50.784;20.604;2023-05-17T17:58:12;7.38;;;6.03;;
43990;SDS011;29654;50.784;20.604;2023-05-17T18:03:14;6.28;;;5.68;;
43990;SDS011;29654;50.784;20.604;2023-05-17T18:08:17;6.72;;;5.65;;
43990;SDS011;29654;50.784;20.604;2023-05-17T18:13:21;6.70;;;6.10;;
43990;SDS011;29654;50.784;20.604;2023-05-17T18:18:24;6.47;;;5.85;;
43990;SDS011;29654;50.784;20.604;2023-05-17T18:23:26;6.88;;;5.68;;
43990;SDS011;29654;50.784;20.604;2023-05-17T18:28:30;6.75;;;5.18;;
43990;SDS011;29654;50.784;20.604;2023-05-17T18:33:35;5.65;;;5.03;;
43990;SDS011;29654;50.784;20.604;2023-05-17T18:38:37;6.47;;;5.88;;
43990;SDS011;29654;50.784;20.604;2023-05-17T18:43:41;5.97;;;5.38;;
43990;SDS011;29654;50.784;20.604;2023-05-17T18:48:44;6.55;;;5.68;;
43990;SDS011;29654;50.784;20.604;2023-05-17T18:53:47;6.03;;;5.50;;
43990;SDS011;29654;50.784;20.604;2023-05-17T18:58:51;6.97;;;5.78;;
43990;SDS011;29654;50.784;20.604;2023-05-17T19:03:54;5.95;;;5.35;;
43990;SDS011;29654;50.784;20.604;2023-05-17T19:08:57;17.23;;;11.98;;
43990;SDS011;29654;50.784;20.604;2023-05-17T19:14:01;8.85;;;6.13;;
43990;SDS011;29654;50.784;20.604;2023-05-17T19:19:05;5.97;;;5.38;;
43990;SDS011;29654;50.784;20.604;2023-05-17T19:24:08;8.32;;;5.25;;
43990;SDS011;29654;50.784;20.604;2023-05-17T19:29:12;9.48;;;5.43;;
43990;SDS011;29654;50.784;20.604;2023-05-17T19:34:15;7.82;;;5.35;;
43990;SDS011;29654;50.784;20.604;2023-05-17T19:39:17;6.35;;;5.75;;
43990;SDS011;29654;50.784;20.604;2023-05-17T19:44:22;7.95;;;5.40;;
43990;SDS011;29654;50.784;20.604;2023-05-17T19:49:24;9.88;;;6.88;;
43990;SDS011;29654;50.784;20.604;2023-05-17T19:54:27;7.30;;;5.82;;
43990;SDS011;29654;50.784;20.604;2023-05-17T19:59:31;8.35;;;6.45;;
43990;SDS011;29654;50.784;20.604;2023-05-17T20:04:34;7.43;;;5.75;;
43990;SDS011;29654;50.784;20.604;2023-05-17T20:09:37;8.88;;;6.68;;
43990;SDS011;29654;50.784;20.604;2023-05-17T20:14:41;6.63;;;5.90;;
43990;SDS011;29654;50.784;20.604;2023-05-17T20:19:43;6.85;;;5.70;;
43990;SDS011;29654;50.784;20.604;2023-05-17T20:24:46;10.60;;;8.40;;
43990;SDS011;29654;50.784;20.604;2023-05-17T20:29:50;9.35;;;8.45;;
43990;SDS011;29654;50.784;20.604;2023-05-17T20:34:53;8.70;;;6.43;;
43990;SDS011;29654;50.784;20.604;2023-05-17T20:39:56;6.43;;;5.82;;
43990;SDS011;29654;50.784;20.604;2023-05-17T20:45:00;8.32;;;5.90;;
43990;SDS011;29654;50.784;20.604;2023-05-17T20:50:03;8.98;;;7.78;;
43990;SDS011;29654;50.784;20.604;2023-05-17T20:55:07;7.05;;;5.93;;
43990;SDS011;29654;50.784;20.604;2023-05-17T21:00:12;7.38;;;5.53;;
43990;SDS011;29654;50.784;20.604;2023-05-17T21:05:18;7.90;;;6.18;;
43990;SDS011;29654;50.784;20.604;2023-05-17T21:10:22;7.07;;;6.30;;
43990;SDS011;29654;50.784;20.604;2023-05-17T21:15:26;6.90;;;5.53;;
43990;SDS011;29654;50.784;20.604;2023-05-17T21:20:29;7.32;;;5.65;;
43990;SDS011;29654;50.784;20.604;2023-05-17T21:25:32;8.63;;;6.13;;
43990;SDS011;29654;50.784;20.604;2023-05-17T21:30:38;9.13;;;6.40;;
43990;SDS011;29654;50.784;20.604;2023-05-17T21:35:40;8.07;;;5.50;;
43990;SDS011;29654;50.784;20.604;2023-05-17T21:40:43;8.20;;;6.13;;
43990;SDS011;29654;50.784;20.604;2023-05-17T21:45:47;8.32;;;5.90;;
43990;SDS011;29654;50.784;20.604;2023-05-17T21:50:49;7.40;;;5.78;;
43990;SDS011;29654;50.784;20.604;2023-05-17T21:55:52;8.27;;;5.47;;
43990;SDS011;29654;50.784;20.604;2023-05-17T22:00:56;7.95;;;5.72;;
43990;SDS011;29654;50.784;20.604;2023-05-17T22:05:59;6.88;;;5.07;;
43990;SDS011;29654;50.784;20.604;2023-05-17T22:11:02;7.43;;;5.55;;
43990;SDS011;29654;50.784;20.604;2023-05-17T22:16:06;7.25;;;5.75;;
43990;SDS011;29654;50.784;20.604;2023-05-17T22:21:09;8.90;;;6.07;;
43990;SDS011;29654;50.784;20.604;2023-05-17T22:26:14;7.20;;;5.60;;
43990;SDS011;29654;50.784;20.604;2023-05-17T22:31:18;8.82;;;6.38;;
43990;SDS011;29654;50.784;20.604;2023-05-17T22:36:21;8.90;;;6.13;;
43990;SDS011;29654;50.784;20.604;2023-05-17T22:41:25;8.88;;;6.68;;
43990;SDS011;29654;50.784;20.604;2023-05-17T22:46:29;9.45;;;6.57;;
43990;SDS011;29654;50.784;20.604;2023-05-17T22:51:32;8.85;;;6.95;;
43990;SDS011;29654;50.784;20.604;2023-05-17T22:56:35;10.75;;;7.53;;
43990;SDS011;29654;50.784;20.604;2023-05-17T23:01:39;7.80;;;6.35;;
43990;SDS011;29654;50.784;20.604;2023-05-17T23:06:42;11.82;;;6.75;;
43990;SDS011;29654;50.784;20.604;2023-05-17T23:11:44;9.82;;;7.35;;
43990;SDS011;29654;50.784;20.604;2023-05-17T23:16:50;7.22;;;6.18;;
43990;SDS011;29654;50.784;20.604;2023-05-17T23:21:53;8.18;;;6.40;;
43990;SDS011;29654;50.784;20.604;2023-05-17T23:26:56;9.50;;;6.40;;
43990;SDS011;29654;50.784;20.604;2023-05-17T23:32:00;6.88;;;5.50;;
43990;SDS011;29654;50.784;20.604;2023-05-17T23:37:02;8.43;;;5.85;;
43990;SDS011;29654;50.784;20.604;2023-05-17T23:42:05;12.35;;;5.70;;
43990;SDS011;29654;50.784;20.604;2023-05-17T23:47:10;12.48;;;6.38;;
43990;SDS011;29654;50.784;20.604;2023-05-17T23:52:13;6.88;;;5.57;;
43990;SDS011;29654;50.784;20.604;2023-05-17T23:57:18;7.07;;;5.30;;
